sensor_id;sensor_type;location;lat;lon;timestamp;P1;durP1;ratioP1;P2;durP2;ratioP2
28844;SDS011;15976;47.938;7.758;2023-07-20T00:02:06;5.47;;;4.05;;
28844;SDS011;15976;47.938;7.758;2023-07-20T00:04:34;8.00;;;3.65;;
28844;SDS011;15976;47.938;7.758;2023-07-20T00:07:02;7.50;;;3.88;;
28844;SDS011;15976;47.938;7.758;2023-07-20T00:09:29;6.38;;;3.85;;
28844;SDS011;15976;47.938;7.758;2023-07-20T00:11:56;8.20;;;3.88;;
28844;SDS011;15976;47.938;7.758;2023-07-20T00:14:26;4.78;;;3.78;;
28844;SDS011;15976;47.938;7.758;2023-07-20T00:16:54;7.50;;;4.25;;
28844;SDS011;15976;47.938;7.758;2023-07-20T00:19:26;5.30;;;3.63;;
28844;SDS011;15976;47.938;7.758;2023-07-20T00:21:54;8.15;;;3.95;;
28844;SDS011;15976;47.938;7.758;2023-07-20T00:24:21;7.63;;;3.85;;
28844;SDS011;15976;47.938;7.758;2023-07-20T00:26:48;6.72;;;3.90;;
28844;SDS011;15976;47.938;7.758;2023-07-20T00:29:16;4.43;;;3.50;;
28844;SDS011;15976;47.938;7.758;2023-07-20T00:31:43;7.30;;;3.95;;
28844;SDS011;15976;47.938;7.758;2023-07-20T00:34:10;13.32;;;4.28;;
28844;SDS011;15976;47.938;7.758;2023-07-20T00:36:39;6.38;;;4.18;;
28844;SDS011;15976;47.938;7.758;2023-07-20T00:39:06;6.60;;;3.80;;
28844;SDS011;15976;47.938;7.758;2023-07-20T00:41:34;6.78;;;3.88;;
28844;SDS011;15976;47.938;7.758;2023-07-20T00:44:01;6.45;;;4.00;;
28844;SDS011;15976;47.938;7.758;2023-07-20T00:46:28;7.93;;;4.00;;
28844;SDS011;15976;47.938;7.758;2023-07-20T00:48:56;11.30;;;4.18;;
28844;SDS011;15976;47.938;7.758;2023-07-20T00:51:23;8.45;;;4.15;;
28844;SDS011;15976;47.938;7.758;2023-07-20T00:53:53;6.30;;;4.15;;
28844;SDS011;15976;47.938;7.758;2023-07-20T00:56:20;8.35;;;3.70;;
28844;SDS011;15976;47.938;7.758;2023-07-20T00:58:49;5.90;;;4.03;;
28844;SDS011;15976;47.938;7.758;2023-07-20T01:01:17;6.28;;;4.05;;
28844;SDS011;15976;47.938;7.758;2023-07-20T01:03:44;8.18;;;4.20;;
28844;SDS011;15976;47.938;7.758;2023-07-20T01:06:15;4.70;;;3.58;;
28844;SDS011;15976;47.938;7.758;2023-07-20T01:09:11;7.15;;;3.72;;
28844;SDS011;15976;47.938;7.758;2023-07-20T01:14:25;4.97;;;3.67;;
28844;SDS011;15976;47.938;7.758;2023-07-20T01:16:53;6.55;;;4.30;;
28844;SDS011;15976;47.938;7.758;2023-07-20T01:19:20;7.78;;;4.03;;
28844;SDS011;15976;47.938;7.758;2023-07-20T01:21:57;7.65;;;3.97;;
28844;SDS011;15976;47.938;7.758;2023-07-20T01:27:15;7.05;;;4.20;;
28844;SDS011;15976;47.938;7.758;2023-07-20T01:32:39;5.93;;;4.10;;
28844;SDS011;15976;47.938;7.758;2023-07-20T01:35:09;7.15;;;3.80;;
28844;SDS011;15976;47.938;7.758;2023-07-20T01:37:41;14.33;;;4.27;;
28844;SDS011;15976;47.938;7.758;2023-07-20T01:40:11;9.77;;;4.13;;
28844;SDS011;15976;47.938;7.758;2023-07-20T01:42:45;6.00;;;4.03;;
28844;SDS011;15976;47.938;7.758;2023-07-20T01:45:13;8.70;;;4.45;;
28844;SDS011;15976;47.938;7.758;2023-07-20T01:47:41;7.70;;;4.20;;
28844;SDS011;15976;47.938;7.758;2023-07-20T01:50:08;6.88;;;3.88;;
28844;SDS011;15976;47.938;7.758;2023-07-20T01:52:35;7.07;;;3.75;;
28844;SDS011;15976;47.938;7.758;2023-07-20T01:55:02;10.40;;;4.20;;
28844;SDS011;15976;47.938;7.758;2023-07-20T01:57:31;8.65;;;4.38;;
28844;SDS011;15976;47.938;7.758;2023-07-20T01:59:58;6.68;;;3.78;;
28844;SDS011;15976;47.938;7.758;2023-07-20T02:02:26;6.28;;;3.97;;
28844;SDS011;15976;47.938;7.758;2023-07-20T02:04:54;8.05;;;4.10;;
28844;SDS011;15976;47.938;7.758;2023-07-20T02:07:22;5.28;;;3.60;;
28844;SDS011;15976;47.938;7.758;2023-07-20T02:09:49;6.30;;;4.45;;
28844;SDS011;15976;47.938;7.758;2023-07-20T02:12:17;6.13;;;3.75;;
28844;SDS011;15976;47.938;7.758;2023-07-20T02:14:44;8.95;;;4.13;;
28844;SDS011;15976;47.938;7.758;2023-07-20T02:17:11;8.55;;;4.07;;
28844;SDS011;15976;47.938;7.758;2023-07-20T02:19:40;6.78;;;3.80;;
28844;SDS011;15976;47.938;7.758;2023-07-20T02:22:07;8.20;;;4.30;;
28844;SDS011;15976;47.938;7.758;2023-07-20T02:24:34;6.78;;;3.90;;
28844;SDS011;15976;47.938;7.758;2023-07-20T02:27:01;9.73;;;4.35;;
28844;SDS011;15976;47.938;7.758;2023-07-20T02:29:29;9.45;;;4.28;;
28844;SDS011;15976;47.938;7.758;2023-07-20T02:31:56;6.20;;;4.10;;
28844;SDS011;15976;47.938;7.758;2023-07-20T02:34:24;6.72;;;4.00;;
28844;SDS011;15976;47.938;7.758;2023-07-20T02:36:51;9.32;;;4.07;;
28844;SDS011;15976;47.938;7.758;2023-07-20T02:39:19;6.50;;;4.20;;
28844;SDS011;15976;47.938;7.758;2023-07-20T02:41:46;6.40;;;4.20;;
28844;SDS011;15976;47.938;7.758;2023-07-20T02:44:13;6.18;;;4.20;;
28844;SDS011;15976;47.938;7.758;2023-07-20T02:46:41;10.45;;;4.35;;
28844;SDS011;15976;47.938;7.758;2023-07-20T02:49:08;8.10;;;4.05;;
28844;SDS011;15976;47.938;7.758;2023-07-20T02:51:36;6.25;;;4.18;;
28844;SDS011;15976;47.938;7.758;2023-07-20T02:54:03;6.55;;;4.22;;
28844;SDS011;15976;47.938;7.758;2023-07-20T02:56:30;7.65;;;4.10;;
28844;SDS011;15976;47.938;7.758;2023-07-20T02:58:57;5.95;;;4.43;;
28844;SDS011;15976;47.938;7.758;2023-07-20T03:01:24;5.57;;;3.92;;
28844;SDS011;15976;47.938;7.758;2023-07-20T03:03:55;6.13;;;4.32;;
28844;SDS011;15976;47.938;7.758;2023-07-20T03:06:23;5.55;;;4.10;;
28844;SDS011;15976;47.938;7.758;2023-07-20T03:08:51;9.93;;;4.68;;
28844;SDS011;15976;47.938;7.758;2023-07-20T03:11:20;7.35;;;3.80;;
28844;SDS011;15976;47.938;7.758;2023-07-20T03:13:47;7.20;;;4.32;;
28844;SDS011;15976;47.938;7.758;2023-07-20T03:16:17;6.97;;;4.10;;
28844;SDS011;15976;47.938;7.758;2023-07-20T03:18:45;8.30;;;4.38;;
28844;SDS011;15976;47.938;7.758;2023-07-20T03:21:13;6.53;;;4.07;;
28844;SDS011;15976;47.938;7.758;2023-07-20T03:23:40;7.45;;;4.07;;
28844;SDS011;15976;47.938;7.758;2023-07-20T03:26:09;6.40;;;4.00;;
28844;SDS011;15976;47.938;7.758;2023-07-20T03:28:37;8.07;;;4.03;;
28844;SDS011;15976;47.938;7.758;2023-07-20T03:31:05;5.72;;;3.80;;
28844;SDS011;15976;47.938;7.758;2023-07-20T03:33:36;8.68;;;4.13;;
28844;SDS011;15976;47.938;7.758;2023-07-20T03:36:03;7.13;;;4.03;;
28844;SDS011;15976;47.938;7.758;2023-07-20T03:38:30;6.63;;;3.83;;
28844;SDS011;15976;47.938;7.758;2023-07-20T03:40:58;7.85;;;4.07;;
28844;SDS011;15976;47.938;7.758;2023-07-20T03:43:27;10.15;;;4.50;;
28844;SDS011;15976;47.938;7.758;2023-07-20T03:45:54;6.38;;;4.40;;
28844;SDS011;15976;47.938;7.758;2023-07-20T03:48:24;7.43;;;4.30;;
28844;SDS011;15976;47.938;7.758;2023-07-20T03:50:53;8.82;;;4.25;;
28844;SDS011;15976;47.938;7.758;2023-07-20T03:53:20;10.68;;;4.55;;
28844;SDS011;15976;47.938;7.758;2023-07-20T03:55:51;9.68;;;4.13;;
28844;SDS011;15976;47.938;7.758;2023-07-20T03:58:19;7.65;;;4.18;;
28844;SDS011;15976;47.938;7.758;2023-07-20T04:00:48;7.32;;;4.88;;
28844;SDS011;15976;47.938;7.758;2023-07-20T04:03:19;6.75;;;4.32;;
28844;SDS011;15976;47.938;7.758;2023-07-20T04:05:47;5.28;;;3.60;;
28844;SDS011;15976;47.938;7.758;2023-07-20T04:08:14;6.07;;;4.30;;
28844;SDS011;15976;47.938;7.758;2023-07-20T04:10:45;7.07;;;4.20;;
28844;SDS011;15976;47.938;7.758;2023-07-20T04:13:12;6.10;;;4.15;;
28844;SDS011;15976;47.938;7.758;2023-07-20T04:15:39;9.18;;;4.43;;
28844;SDS011;15976;47.938;7.758;2023-07-20T04:18:06;8.55;;;4.57;;
28844;SDS011;15976;47.938;7.758;2023-07-20T04:20:33;9.82;;;4.22;;
28844;SDS011;15976;47.938;7.758;2023-07-20T04:23:00;7.25;;;4.28;;
28844;SDS011;15976;47.938;7.758;2023-07-20T04:25:28;8.02;;;4.25;;
28844;SDS011;15976;47.938;7.758;2023-07-20T04:27:57;7.45;;;4.45;;
28844;SDS011;15976;47.938;7.758;2023-07-20T04:30:24;7.78;;;4.38;;
28844;SDS011;15976;47.938;7.758;2023-07-20T04:32:51;5.45;;;4.28;;
28844;SDS011;15976;47.938;7.758;2023-07-20T04:38:39;6.47;;;4.32;;
28844;SDS011;15976;47.938;7.758;2023-07-20T04:41:11;8.15;;;4.65;;
28844;SDS011;15976;47.938;7.758;2023-07-20T04:43:42;7.97;;;4.38;;
28844;SDS011;15976;47.938;7.758;2023-07-20T04:46:12;6.95;;;4.00;;
28844;SDS011;15976;47.938;7.758;2023-07-20T04:48:41;7.45;;;4.38;;
28844;SDS011;15976;47.938;7.758;2023-07-20T04:51:08;6.28;;;4.55;;
28844;SDS011;15976;47.938;7.758;2023-07-20T04:53:38;8.15;;;4.32;;
28844;SDS011;15976;47.938;7.758;2023-07-20T04:56:06;6.47;;;4.10;;
28844;SDS011;15976;47.938;7.758;2023-07-20T04:58:34;6.90;;;4.13;;
28844;SDS011;15976;47.938;7.758;2023-07-20T05:01:01;7.88;;;4.20;;
28844;SDS011;15976;47.938;7.758;2023-07-20T05:03:29;8.05;;;4.20;;
28844;SDS011;15976;47.938;7.758;2023-07-20T05:05:57;8.70;;;4.30;;
28844;SDS011;15976;47.938;7.758;2023-07-20T05:08:24;8.20;;;4.20;;
28844;SDS011;15976;47.938;7.758;2023-07-20T05:10:52;11.80;;;4.78;;
28844;SDS011;15976;47.938;7.758;2023-07-20T05:13:19;8.80;;;4.40;;
28844;SDS011;15976;47.938;7.758;2023-07-20T05:15:50;8.70;;;4.70;;
28844;SDS011;15976;47.938;7.758;2023-07-20T05:18:19;8.30;;;4.38;;
28844;SDS011;15976;47.938;7.758;2023-07-20T05:20:48;4.80;;;4.07;;
28844;SDS011;15976;47.938;7.758;2023-07-20T05:23:19;7.80;;;4.63;;
28844;SDS011;15976;47.938;7.758;2023-07-20T05:25:47;9.43;;;4.45;;
28844;SDS011;15976;47.938;7.758;2023-07-20T05:28:24;9.00;;;4.40;;
28844;SDS011;15976;47.938;7.758;2023-07-20T05:30:55;10.35;;;4.60;;
28844;SDS011;15976;47.938;7.758;2023-07-20T05:33:23;9.73;;;4.85;;
28844;SDS011;15976;47.938;7.758;2023-07-20T05:35:50;9.60;;;4.80;;
28844;SDS011;15976;47.938;7.758;2023-07-20T05:38:17;7.95;;;4.40;;
28844;SDS011;15976;47.938;7.758;2023-07-20T05:40:44;8.10;;;4.38;;
28844;SDS011;15976;47.938;7.758;2023-07-20T05:43:11;6.40;;;4.43;;
28844;SDS011;15976;47.938;7.758;2023-07-20T05:45:42;5.75;;;4.20;;
28844;SDS011;15976;47.938;7.758;2023-07-20T05:48:09;5.65;;;4.13;;
28844;SDS011;15976;47.938;7.758;2023-07-20T05:50:41;9.23;;;4.80;;
28844;SDS011;15976;47.938;7.758;2023-07-20T05:53:12;8.77;;;4.97;;
28844;SDS011;15976;47.938;7.758;2023-07-20T05:55:39;7.22;;;4.45;;
28844;SDS011;15976;47.938;7.758;2023-07-20T05:58:06;6.40;;;4.78;;
28844;SDS011;15976;47.938;7.758;2023-07-20T06:00:33;6.88;;;4.40;;
28844;SDS011;15976;47.938;7.758;2023-07-20T06:03:02;5.97;;;4.57;;
28844;SDS011;15976;47.938;7.758;2023-07-20T06:05:30;6.78;;;4.35;;
28844;SDS011;15976;47.938;7.758;2023-07-20T06:07:57;6.22;;;4.78;;
28844;SDS011;15976;47.938;7.758;2023-07-20T06:10:30;6.10;;;4.20;;
28844;SDS011;15976;47.938;7.758;2023-07-20T06:12:57;10.18;;;4.45;;
28844;SDS011;15976;47.938;7.758;2023-07-20T06:15:31;15.23;;;4.45;;
28844;SDS011;15976;47.938;7.758;2023-07-20T06:18:01;8.75;;;4.40;;
28844;SDS011;15976;47.938;7.758;2023-07-20T06:20:30;10.23;;;4.75;;
28844;SDS011;15976;47.938;7.758;2023-07-20T06:22:57;11.43;;;4.65;;
28844;SDS011;15976;47.938;7.758;2023-07-20T06:25:24;8.70;;;4.80;;
28844;SDS011;15976;47.938;7.758;2023-07-20T06:27:52;9.55;;;4.47;;
28844;SDS011;15976;47.938;7.758;2023-07-20T06:30:20;9.18;;;4.30;;
28844;SDS011;15976;47.938;7.758;2023-07-20T06:32:47;10.80;;;4.35;;
28844;SDS011;15976;47.938;7.758;2023-07-20T06:35:15;8.77;;;4.47;;
28844;SDS011;15976;47.938;7.758;2023-07-20T06:37:44;9.10;;;4.07;;
28844;SDS011;15976;47.938;7.758;2023-07-20T06:40:12;6.40;;;4.22;;
28844;SDS011;15976;47.938;7.758;2023-07-20T06:42:42;6.90;;;4.70;;
28844;SDS011;15976;47.938;7.758;2023-07-20T06:45:12;7.72;;;4.30;;
28844;SDS011;15976;47.938;7.758;2023-07-20T06:47:40;9.73;;;4.55;;
28844;SDS011;15976;47.938;7.758;2023-07-20T06:50:10;10.90;;;4.30;;
28844;SDS011;15976;47.938;7.758;2023-07-20T06:52:43;8.20;;;4.45;;
28844;SDS011;15976;47.938;7.758;2023-07-20T06:55:10;6.80;;;4.38;;
28844;SDS011;15976;47.938;7.758;2023-07-20T06:57:40;8.02;;;4.70;;
28844;SDS011;15976;47.938;7.758;2023-07-20T07:00:15;7.57;;;4.15;;
28844;SDS011;15976;47.938;7.758;2023-07-20T07:02:42;7.40;;;4.07;;
28844;SDS011;15976;47.938;7.758;2023-07-20T07:05:16;8.18;;;4.30;;
28844;SDS011;15976;47.938;7.758;2023-07-20T07:07:46;7.03;;;4.35;;
28844;SDS011;15976;47.938;7.758;2023-07-20T07:10:14;8.80;;;4.68;;
28844;SDS011;15976;47.938;7.758;2023-07-20T07:12:42;8.23;;;4.80;;
28844;SDS011;15976;47.938;7.758;2023-07-20T07:15:09;10.18;;;4.45;;
28844;SDS011;15976;47.938;7.758;2023-07-20T07:17:38;8.52;;;4.30;;
28844;SDS011;15976;47.938;7.758;2023-07-20T07:20:10;7.50;;;4.13;;
28844;SDS011;15976;47.938;7.758;2023-07-20T07:22:47;8.90;;;4.45;;
28844;SDS011;15976;47.938;7.758;2023-07-20T07:25:14;5.78;;;3.95;;
28844;SDS011;15976;47.938;7.758;2023-07-20T07:27:48;9.38;;;4.43;;
28844;SDS011;15976;47.938;7.758;2023-07-20T07:30:16;7.68;;;4.20;;
28844;SDS011;15976;47.938;7.758;2023-07-20T07:32:44;7.22;;;4.28;;
28844;SDS011;15976;47.938;7.758;2023-07-20T07:35:24;8.80;;;4.47;;
28844;SDS011;15976;47.938;7.758;2023-07-20T07:37:52;10.07;;;4.90;;
28844;SDS011;15976;47.938;7.758;2023-07-20T07:40:41;9.18;;;4.65;;
28844;SDS011;15976;47.938;7.758;2023-07-20T07:43:10;8.20;;;4.20;;
28844;SDS011;15976;47.938;7.758;2023-07-20T07:45:38;9.40;;;4.10;;
28844;SDS011;15976;47.938;7.758;2023-07-20T07:48:06;8.43;;;4.68;;
28844;SDS011;15976;47.938;7.758;2023-07-20T07:50:35;8.23;;;4.05;;
28844;SDS011;15976;47.938;7.758;2023-07-20T07:53:02;7.80;;;4.28;;
28844;SDS011;15976;47.938;7.758;2023-07-20T07:55:33;8.57;;;3.67;;
28844;SDS011;15976;47.938;7.758;2023-07-20T07:58:01;7.63;;;4.40;;
28844;SDS011;15976;47.938;7.758;2023-07-20T08:00:41;7.15;;;4.30;;
28844;SDS011;15976;47.938;7.758;2023-07-20T08:03:09;12.13;;;4.35;;
28844;SDS011;15976;47.938;7.758;2023-07-20T08:05:37;6.18;;;4.10;;
28844;SDS011;15976;47.938;7.758;2023-07-20T08:08:05;7.20;;;4.38;;
28844;SDS011;15976;47.938;7.758;2023-07-20T08:10:33;9.85;;;4.28;;
28844;SDS011;15976;47.938;7.758;2023-07-20T08:13:02;10.90;;;4.22;;
28844;SDS011;15976;47.938;7.758;2023-07-20T08:15:29;8.57;;;4.30;;
28844;SDS011;15976;47.938;7.758;2023-07-20T08:18:00;8.73;;;3.90;;
28844;SDS011;15976;47.938;7.758;2023-07-20T08:20:27;9.25;;;3.97;;
28844;SDS011;15976;47.938;7.758;2023-07-20T08:22:54;6.90;;;4.25;;
28844;SDS011;15976;47.938;7.758;2023-07-20T08:25:22;8.63;;;4.28;;
28844;SDS011;15976;47.938;7.758;2023-07-20T08:27:50;8.50;;;4.22;;
28844;SDS011;15976;47.938;7.758;2023-07-20T08:30:20;8.98;;;4.20;;
28844;SDS011;15976;47.938;7.758;2023-07-20T08:32:48;7.77;;;3.77;;
28844;SDS011;15976;47.938;7.758;2023-07-20T08:35:15;10.10;;;4.15;;
28844;SDS011;15976;47.938;7.758;2023-07-20T08:37:47;10.52;;;3.83;;
28844;SDS011;15976;47.938;7.758;2023-07-20T08:40:15;11.00;;;3.50;;
28844;SDS011;15976;47.938;7.758;2023-07-20T08:42:42;10.43;;;3.80;;
28844;SDS011;15976;47.938;7.758;2023-07-20T08:45:14;6.88;;;3.50;;
28844;SDS011;15976;47.938;7.758;2023-07-20T08:47:43;7.35;;;3.35;;
28844;SDS011;15976;47.938;7.758;2023-07-20T08:50:14;5.60;;;3.33;;
28844;SDS011;15976;47.938;7.758;2023-07-20T08:52:42;6.25;;;2.80;;
28844;SDS011;15976;47.938;7.758;2023-07-20T08:55:10;5.68;;;3.05;;
28844;SDS011;15976;47.938;7.758;2023-07-20T09:00:38;6.95;;;2.95;;
28844;SDS011;15976;47.938;7.758;2023-07-20T09:03:08;7.50;;;2.55;;
28844;SDS011;15976;47.938;7.758;2023-07-20T09:05:41;5.10;;;2.92;;
28844;SDS011;15976;47.938;7.758;2023-07-20T09:08:08;3.72;;;2.90;;
28844;SDS011;15976;47.938;7.758;2023-07-20T09:10:36;5.50;;;3.00;;
28844;SDS011;15976;47.938;7.758;2023-07-20T09:13:05;5.28;;;2.85;;
28844;SDS011;15976;47.938;7.758;2023-07-20T09:15:36;7.90;;;2.83;;
28844;SDS011;15976;47.938;7.758;2023-07-20T09:18:03;5.30;;;3.35;;
28844;SDS011;15976;47.938;7.758;2023-07-20T09:20:31;3.80;;;2.58;;
28844;SDS011;15976;47.938;7.758;2023-07-20T09:23:00;13.35;;;3.17;;
28844;SDS011;15976;47.938;7.758;2023-07-20T09:25:31;8.03;;;3.13;;
28844;SDS011;15976;47.938;7.758;2023-07-20T09:27:58;6.32;;;2.83;;
28844;SDS011;15976;47.938;7.758;2023-07-20T09:30:31;3.95;;;2.55;;
28844;SDS011;15976;47.938;7.758;2023-07-20T09:32:59;5.72;;;2.40;;
28844;SDS011;15976;47.938;7.758;2023-07-20T09:35:27;4.72;;;2.63;;
28844;SDS011;15976;47.938;7.758;2023-07-20T09:38:08;4.72;;;2.30;;
28844;SDS011;15976;47.938;7.758;2023-07-20T09:40:39;7.75;;;2.60;;
28844;SDS011;15976;47.938;7.758;2023-07-20T09:43:12;3.95;;;2.60;;
28844;SDS011;15976;47.938;7.758;2023-07-20T09:45:45;3.47;;;2.47;;
28844;SDS011;15976;47.938;7.758;2023-07-20T09:48:15;5.82;;;2.53;;
28844;SDS011;15976;47.938;7.758;2023-07-20T09:50:49;3.88;;;2.78;;
28844;SDS011;15976;47.938;7.758;2023-07-20T09:53:18;4.40;;;2.55;;
28844;SDS011;15976;47.938;7.758;2023-07-20T09:55:49;9.45;;;3.00;;
28844;SDS011;15976;47.938;7.758;2023-07-20T09:58:16;5.85;;;2.35;;
28844;SDS011;15976;47.938;7.758;2023-07-20T10:00:48;5.60;;;2.42;;
28844;SDS011;15976;47.938;7.758;2023-07-20T10:03:20;4.90;;;2.53;;
28844;SDS011;15976;47.938;7.758;2023-07-20T10:05:54;3.75;;;2.25;;
28844;SDS011;15976;47.938;7.758;2023-07-20T10:08:28;4.57;;;2.47;;
28844;SDS011;15976;47.938;7.758;2023-07-20T10:10:59;4.90;;;2.38;;
28844;SDS011;15976;47.938;7.758;2023-07-20T10:13:33;3.78;;;2.40;;
28844;SDS011;15976;47.938;7.758;2023-07-20T10:16:15;6.30;;;2.55;;
28844;SDS011;15976;47.938;7.758;2023-07-20T10:21:41;4.07;;;2.20;;
28844;SDS011;15976;47.938;7.758;2023-07-20T10:24:21;4.60;;;2.35;;
28844;SDS011;15976;47.938;7.758;2023-07-20T10:26:51;5.93;;;2.20;;
28844;SDS011;15976;47.938;7.758;2023-07-20T10:29:18;3.20;;;2.10;;
28844;SDS011;15976;47.938;7.758;2023-07-20T10:31:47;4.40;;;2.05;;
28844;SDS011;15976;47.938;7.758;2023-07-20T10:34:15;4.38;;;1.95;;
28844;SDS011;15976;47.938;7.758;2023-07-20T10:36:44;4.03;;;2.45;;
28844;SDS011;15976;47.938;7.758;2023-07-20T10:39:22;2.90;;;2.30;;
28844;SDS011;15976;47.938;7.758;2023-07-20T10:41:59;4.13;;;2.10;;
28844;SDS011;15976;47.938;7.758;2023-07-20T10:44:29;2.47;;;2.15;;
28844;SDS011;15976;47.938;7.758;2023-07-20T10:47:00;3.50;;;2.22;;
28844;SDS011;15976;47.938;7.758;2023-07-20T10:49:58;4.90;;;2.00;;
28844;SDS011;15976;47.938;7.758;2023-07-20T10:53:00;2.67;;;2.20;;
28844;SDS011;15976;47.938;7.758;2023-07-20T10:55:39;4.70;;;2.08;;
28844;SDS011;15976;47.938;7.758;2023-07-20T10:58:15;5.82;;;2.50;;
28844;SDS011;15976;47.938;7.758;2023-07-20T11:00:56;3.20;;;2.00;;
28844;SDS011;15976;47.938;7.758;2023-07-20T11:03:31;5.35;;;2.13;;
28844;SDS011;15976;47.938;7.758;2023-07-20T11:09:09;3.15;;;2.15;;
28844;SDS011;15976;47.938;7.758;2023-07-20T11:11:40;6.47;;;2.13;;
28844;SDS011;15976;47.938;7.758;2023-07-20T11:14:10;4.18;;;2.22;;
28844;SDS011;15976;47.938;7.758;2023-07-20T11:16:47;4.47;;;2.00;;
28844;SDS011;15976;47.938;7.758;2023-07-20T11:21:47;4.55;;;2.20;;
28844;SDS011;15976;47.938;7.758;2023-07-20T11:24:29;3.35;;;1.80;;
28844;SDS011;15976;47.938;7.758;2023-07-20T11:26:57;2.05;;;1.80;;
28844;SDS011;15976;47.938;7.758;2023-07-20T11:29:25;4.07;;;1.98;;
28844;SDS011;15976;47.938;7.758;2023-07-20T11:31:56;2.87;;;2.17;;
28844;SDS011;15976;47.938;7.758;2023-07-20T11:34:24;4.57;;;2.08;;
28844;SDS011;15976;47.938;7.758;2023-07-20T11:36:51;4.38;;;2.20;;
28844;SDS011;15976;47.938;7.758;2023-07-20T11:39:21;2.40;;;2.00;;
28844;SDS011;15976;47.938;7.758;2023-07-20T11:41:51;2.83;;;1.90;;
28844;SDS011;15976;47.938;7.758;2023-07-20T11:44:20;3.00;;;2.15;;
28844;SDS011;15976;47.938;7.758;2023-07-20T11:49:37;3.17;;;2.10;;
28844;SDS011;15976;47.938;7.758;2023-07-20T11:52:10;3.45;;;2.35;;
28844;SDS011;15976;47.938;7.758;2023-07-20T11:54:40;4.43;;;2.20;;
28844;SDS011;15976;47.938;7.758;2023-07-20T11:57:17;4.03;;;2.10;;
28844;SDS011;15976;47.938;7.758;2023-07-20T11:59:56;3.13;;;2.28;;
28844;SDS011;15976;47.938;7.758;2023-07-20T12:02:26;4.10;;;2.20;;
28844;SDS011;15976;47.938;7.758;2023-07-20T12:04:54;3.42;;;2.50;;
28844;SDS011;15976;47.938;7.758;2023-07-20T12:07:22;4.32;;;2.10;;
28844;SDS011;15976;47.938;7.758;2023-07-20T12:10:03;3.80;;;1.95;;
28844;SDS011;15976;47.938;7.758;2023-07-20T12:12:37;3.88;;;1.98;;
28844;SDS011;15976;47.938;7.758;2023-07-20T12:18:03;5.55;;;2.55;;
28844;SDS011;15976;47.938;7.758;2023-07-20T12:20:35;3.15;;;2.40;;
28844;SDS011;15976;47.938;7.758;2023-07-20T12:23:04;4.25;;;2.10;;
28844;SDS011;15976;47.938;7.758;2023-07-20T12:25:44;3.47;;;2.17;;
28844;SDS011;15976;47.938;7.758;2023-07-20T12:28:19;4.50;;;1.90;;
28844;SDS011;15976;47.938;7.758;2023-07-20T12:30:46;2.97;;;1.80;;
28844;SDS011;15976;47.938;7.758;2023-07-20T12:33:23;2.78;;;2.15;;
28844;SDS011;15976;47.938;7.758;2023-07-20T12:35:51;4.13;;;2.28;;
28844;SDS011;15976;47.938;7.758;2023-07-20T12:38:25;3.47;;;1.98;;
28844;SDS011;15976;47.938;7.758;2023-07-20T12:40:55;2.72;;;1.80;;
28844;SDS011;15976;47.938;7.758;2023-07-20T12:43:22;4.90;;;2.00;;
28844;SDS011;15976;47.938;7.758;2023-07-20T12:45:50;6.18;;;2.20;;
28844;SDS011;15976;47.938;7.758;2023-07-20T12:48:17;5.88;;;2.17;;
28844;SDS011;15976;47.938;7.758;2023-07-20T12:50:44;5.25;;;2.03;;
28844;SDS011;15976;47.938;7.758;2023-07-20T12:53:11;2.75;;;1.70;;
28844;SDS011;15976;47.938;7.758;2023-07-20T12:55:38;6.50;;;2.10;;
28844;SDS011;15976;47.938;7.758;2023-07-20T12:58:06;2.97;;;1.90;;
28844;SDS011;15976;47.938;7.758;2023-07-20T13:00:34;2.10;;;1.88;;
28844;SDS011;15976;47.938;7.758;2023-07-20T13:03:04;4.10;;;1.93;;
28844;SDS011;15976;47.938;7.758;2023-07-20T13:08:05;4.30;;;2.03;;
28844;SDS011;15976;47.938;7.758;2023-07-20T13:10:35;5.53;;;2.15;;
28844;SDS011;15976;47.938;7.758;2023-07-20T13:13:03;6.28;;;2.00;;
28844;SDS011;15976;47.938;7.758;2023-07-20T13:15:31;3.55;;;1.80;;
28844;SDS011;15976;47.938;7.758;2023-07-20T13:18:07;4.40;;;2.33;;
28844;SDS011;15976;47.938;7.758;2023-07-20T13:20:34;5.90;;;2.35;;
28844;SDS011;15976;47.938;7.758;2023-07-20T13:23:01;9.98;;;2.33;;
28844;SDS011;15976;47.938;7.758;2023-07-20T13:25:28;4.60;;;2.17;;
28844;SDS011;15976;47.938;7.758;2023-07-20T13:27:55;5.55;;;2.17;;
28844;SDS011;15976;47.938;7.758;2023-07-20T13:30:22;2.70;;;1.90;;
28844;SDS011;15976;47.938;7.758;2023-07-20T13:32:49;1.95;;;1.58;;
28844;SDS011;15976;47.938;7.758;2023-07-20T13:35:17;5.15;;;2.25;;
28844;SDS011;15976;47.938;7.758;2023-07-20T13:37:44;3.28;;;2.10;;
28844;SDS011;15976;47.938;7.758;2023-07-20T13:40:12;3.08;;;2.20;;
28844;SDS011;15976;47.938;7.758;2023-07-20T13:42:50;3.33;;;2.10;;
28844;SDS011;15976;47.938;7.758;2023-07-20T13:45:17;3.88;;;2.10;;
28844;SDS011;15976;47.938;7.758;2023-07-20T13:47:44;4.57;;;1.95;;
28844;SDS011;15976;47.938;7.758;2023-07-20T13:50:16;3.00;;;1.88;;
28844;SDS011;15976;47.938;7.758;2023-07-20T13:52:46;3.37;;;2.10;;
28844;SDS011;15976;47.938;7.758;2023-07-20T13:55:14;2.72;;;2.08;;
28844;SDS011;15976;47.938;7.758;2023-07-20T13:57:41;3.05;;;2.00;;
28844;SDS011;15976;47.938;7.758;2023-07-20T14:00:09;2.30;;;1.95;;
28844;SDS011;15976;47.938;7.758;2023-07-20T14:02:37;5.15;;;4.15;;
28844;SDS011;15976;47.938;7.758;2023-07-20T14:05:07;3.22;;;2.20;;
28844;SDS011;15976;47.938;7.758;2023-07-20T14:07:44;3.22;;;2.10;;
28844;SDS011;15976;47.938;7.758;2023-07-20T14:10:12;3.38;;;2.08;;
28844;SDS011;15976;47.938;7.758;2023-07-20T14:12:43;4.30;;;2.30;;
28844;SDS011;15976;47.938;7.758;2023-07-20T14:15:11;4.90;;;1.98;;
28844;SDS011;15976;47.938;7.758;2023-07-20T14:17:38;2.47;;;2.10;;
28844;SDS011;15976;47.938;7.758;2023-07-20T14:20:06;5.85;;;2.33;;
28844;SDS011;15976;47.938;7.758;2023-07-20T14:22:47;3.25;;;2.28;;
28844;SDS011;15976;47.938;7.758;2023-07-20T14:25:17;4.88;;;2.10;;
28844;SDS011;15976;47.938;7.758;2023-07-20T14:27:45;2.05;;;1.83;;
28844;SDS011;15976;47.938;7.758;2023-07-20T14:30:13;3.05;;;1.98;;
28844;SDS011;15976;47.938;7.758;2023-07-20T14:32:40;4.57;;;2.30;;
28844;SDS011;15976;47.938;7.758;2023-07-20T14:35:08;4.15;;;2.10;;
28844;SDS011;15976;47.938;7.758;2023-07-20T14:37:36;2.95;;;1.80;;
28844;SDS011;15976;47.938;7.758;2023-07-20T14:40:06;2.83;;;2.05;;
28844;SDS011;15976;47.938;7.758;2023-07-20T14:42:34;4.95;;;2.22;;
28844;SDS011;15976;47.938;7.758;2023-07-20T14:45:01;4.05;;;2.40;;
28844;SDS011;15976;47.938;7.758;2023-07-20T14:47:33;4.30;;;2.00;;
28844;SDS011;15976;47.938;7.758;2023-07-20T14:50:02;3.72;;;2.08;;
28844;SDS011;15976;47.938;7.758;2023-07-20T14:52:29;3.88;;;1.80;;
28844;SDS011;15976;47.938;7.758;2023-07-20T14:54:56;5.10;;;2.20;;
28844;SDS011;15976;47.938;7.758;2023-07-20T14:57:23;3.60;;;2.13;;
28844;SDS011;15976;47.938;7.758;2023-07-20T14:59:50;4.15;;;1.90;;
28844;SDS011;15976;47.938;7.758;2023-07-20T15:02:19;4.75;;;2.22;;
28844;SDS011;15976;47.938;7.758;2023-07-20T15:04:47;2.97;;;1.95;;
28844;SDS011;15976;47.938;7.758;2023-07-20T15:07:16;3.63;;;2.17;;
28844;SDS011;15976;47.938;7.758;2023-07-20T15:09:45;2.65;;;1.92;;
28844;SDS011;15976;47.938;7.758;2023-07-20T15:12:12;4.43;;;2.05;;
28844;SDS011;15976;47.938;7.758;2023-07-20T15:14:40;3.33;;;1.98;;
28844;SDS011;15976;47.938;7.758;2023-07-20T15:17:09;2.53;;;1.60;;
28844;SDS011;15976;47.938;7.758;2023-07-20T15:19:37;4.45;;;2.00;;
28844;SDS011;15976;47.938;7.758;2023-07-20T15:22:04;2.95;;;1.88;;
28844;SDS011;15976;47.938;7.758;2023-07-20T15:24:34;5.38;;;2.15;;
28844;SDS011;15976;47.938;7.758;2023-07-20T15:27:02;5.30;;;2.10;;
28844;SDS011;15976;47.938;7.758;2023-07-20T15:29:30;3.75;;;1.77;;
28844;SDS011;15976;47.938;7.758;2023-07-20T15:32:00;2.42;;;2.10;;
28844;SDS011;15976;47.938;7.758;2023-07-20T15:34:27;5.22;;;2.20;;